createdAt,value
2023-04-22T00:04:54.106Z,39.75
2023-04-22T00:09:57.331Z,42.25
2023-04-22T00:15:01.769Z,39.63
2023-04-22T00:20:06.173Z,40.08
2023-04-22T00:25:09.826Z,39.78
2023-04-22T00:30:16.521Z,40.10
2023-04-22T00:35:19.465Z,39.35
2023-04-22T00:40:22.708Z,40.55
2023-04-22T00:45:27.957Z,40.17
2023-04-22T00:50:31.011Z,39.95
2023-04-22T00:55:35.744Z,39.70
2023-04-22T01:00:40.095Z,39.45
2023-04-22T01:05:43.316Z,40.47
2023-04-22T01:10:46.779Z,40.20
2023-04-22T01:15:51.762Z,39.28
2023-04-22T01:20:56.188Z,39.25
2023-04-22T01:26:00.540Z,39.70
2023-04-22T01:31:03.668Z,40.10
2023-04-22T01:36:06.945Z,40.17
2023-04-22T01:41:11.440Z,38.92
2023-04-22T01:46:14.406Z,40.00
2023-04-22T01:51:17.561Z,39.30
2023-04-22T01:56:21.787Z,40.15
2023-04-22T02:01:25.671Z,39.97
2023-04-22T02:06:28.659Z,39.42
2023-04-22T02:11:33.649Z,39.63
2023-04-22T02:16:36.627Z,39.13
2023-04-22T02:21:41.066Z,40.00
2023-04-22T02:26:46.042Z,40.75
2023-04-22T02:31:49.133Z,39.60
2023-04-22T02:36:52.527Z,40.38
2023-04-22T02:41:57.193Z,39.13
2023-04-22T02:47:00.350Z,39.10
2023-04-22T02:52:03.428Z,38.65
2023-04-22T02:57:07.957Z,39.22
2023-04-22T03:02:11.380Z,40.47
2023-04-22T03:07:37.647Z,39.72
2023-04-22T03:12:42.635Z,38.85
2023-04-22T03:17:45.681Z,40.05
2023-04-22T03:22:50.377Z,39.15
2023-04-22T03:27:54.851Z,40.25
2023-04-22T03:32:57.821Z,39.88
2023-04-22T03:38:07.865Z,39.10
2023-04-22T03:43:14.666Z,38.88
2023-04-22T03:48:18.710Z,38.97
2023-04-22T03:53:25.349Z,39.15
2023-04-22T03:58:30.096Z,39.28
2023-04-22T04:03:35.556Z,39.67
2023-04-22T04:08:39.085Z,38.80
2023-04-22T04:13:43.725Z,39.13
2023-04-22T04:19:07.336Z,38.45
2023-04-22T04:24:12.538Z,39.47
2023-04-22T04:29:23.816Z,38.85
2023-04-22T04:34:39.487Z,38.97
2023-04-22T04:39:44.486Z,38.65
2023-04-22T04:44:51.028Z,39.22
2023-04-22T04:49:58.541Z,39.13
2023-04-22T04:55:01.719Z,40.20
2023-04-22T05:00:10.440Z,39.00
2023-04-22T05:05:13.411Z,39.55
2023-04-22T05:10:18.317Z,38.80
2023-04-22T05:15:23.128Z,38.40
2023-04-22T05:20:26.301Z,38.67
2023-04-22T05:25:29.498Z,38.80
2023-04-22T05:30:40.198Z,38.60
2023-04-22T05:35:43.272Z,40.70
2023-04-22T05:40:47.250Z,39.13
2023-04-22T05:45:53.253Z,44.97
2023-04-22T05:50:57.091Z,44.45
2023-04-22T05:56:02.091Z,41.05
2023-04-22T06:01:06.451Z,40.72
2023-04-22T06:06:54.084Z,43.55
2023-04-22T06:11:58.194Z,46.35
2023-04-22T06:17:03.094Z,44.58
2023-04-22T06:22:06.287Z,41.47
2023-04-22T06:27:09.264Z,40.13
2023-04-22T06:32:13.642Z,40.63
2023-04-22T06:37:19.400Z,40.15
2023-04-22T06:42:22.507Z,43.47
2023-04-22T06:47:47.308Z,42.90
2023-04-22T06:52:53.142Z,42.20
2023-04-22T06:57:56.212Z,47.45
2023-04-22T07:03:00.547Z,44.22
2023-04-22T07:08:04.531Z,41.58
2023-04-22T07:13:07.432Z,40.72
2023-04-22T07:18:11.651Z,40.92
2023-04-22T07:23:14.487Z,40.42
2023-04-22T07:28:17.341Z,40.95
2023-04-22T07:33:21.532Z,41.70
2023-04-22T07:38:24.399Z,40.55
2023-04-22T07:43:27.262Z,41.83
2023-04-22T07:48:31.521Z,40.70
2023-04-22T07:53:34.402Z,40.72
2023-04-22T07:58:37.306Z,41.55
2023-04-22T08:03:41.763Z,41.20
2023-04-22T08:08:44.805Z,40.22
2023-04-22T08:13:47.706Z,40.20
2023-04-22T08:18:52.995Z,40.75
2023-04-22T08:23:56.008Z,40.85
2023-04-22T08:28:58.884Z,42.45
2023-04-22T08:34:03.170Z,40.80
2023-04-22T08:39:06.199Z,42.58
2023-04-22T08:44:09.529Z,41.90
2023-04-22T08:49:14.791Z,42.70
2023-04-22T08:54:17.653Z,43.47
2023-04-22T08:59:23.444Z,42.65
2023-04-22T09:04:27.885Z,44.47
2023-04-22T09:09:31.911Z,42.60
2023-04-22T09:14:35.288Z,43.15
2023-04-22T09:19:39.848Z,44.28
2023-04-22T09:24:45.023Z,45.38
2023-04-22T09:29:49.958Z,42.88
2023-04-22T09:34:55.633Z,42.45
2023-04-22T09:39:58.507Z,42.95
2023-04-22T09:45:02.295Z,41.83
2023-04-22T09:50:07.581Z,41.67
2023-04-22T09:55:10.797Z,41.95
2023-04-22T10:00:15.393Z,42.42
2023-04-22T10:05:19.764Z,42.60
2023-04-22T10:10:23.423Z,41.95
2023-04-22T10:15:27.458Z,45.05
2023-04-22T10:20:36.312Z,43.08
2023-04-22T10:25:41.338Z,42.83
2023-04-22T10:30:45.602Z,42.90
2023-04-22T10:36:11.602Z,42.50
2023-04-22T10:41:16.135Z,42.50
2023-04-22T10:46:53.021Z,45.60
2023-04-22T10:51:59.223Z,44.38
2023-04-22T10:57:03.276Z,44.05
2023-04-22T11:02:07.740Z,43.85
2023-04-22T11:07:32.015Z,44.38
2023-04-22T11:12:45.015Z,43.50
2023-04-22T11:17:53.877Z,42.70
2023-04-22T11:22:59.173Z,42.53
2023-04-22T11:28:02.148Z,45.67
2023-04-22T11:33:05.132Z,43.85
2023-04-22T11:38:09.815Z,42.33
2023-04-22T11:43:12.961Z,43.58
2023-04-22T11:48:16.648Z,45.05
2023-04-22T11:53:23.975Z,55.08
2023-04-22T11:58:28.642Z,44.10
2023-04-22T12:03:32.247Z,42.88
2023-04-22T12:08:39.785Z,43.17
2023-04-22T12:13:45.522Z,44.20
2023-04-22T12:18:53.092Z,43.60
2023-04-22T12:23:59.953Z,43.95
2023-04-22T12:29:02.811Z,43.70
2023-04-22T12:34:06.158Z,43.63
2023-04-22T12:39:10.707Z,43.72
2023-04-22T12:44:13.610Z,43.85
2023-04-22T12:49:16.708Z,43.92
2023-04-22T12:54:21.888Z,43.70
2023-04-22T12:59:24.774Z,43.45
2023-04-22T13:04:27.728Z,43.47
2023-04-22T13:09:32.025Z,43.35
2023-04-22T13:14:34.940Z,43.03
2023-04-22T13:19:37.981Z,43.25
2023-04-22T13:24:42.316Z,43.00
2023-04-22T13:29:45.501Z,43.60
2023-04-22T13:34:48.495Z,43.58
2023-04-22T13:39:52.812Z,42.88
2023-04-22T13:44:55.665Z,43.20
2023-04-22T13:49:58.761Z,44.25
2023-04-22T13:55:04.225Z,43.45
2023-04-22T14:00:09.344Z,43.72
2023-04-22T14:05:15.057Z,43.65
2023-04-22T14:10:20.467Z,42.95
2023-04-22T14:15:23.375Z,45.30
2023-04-22T14:20:26.318Z,43.13
2023-04-22T14:25:30.576Z,42.80
2023-04-22T14:30:33.728Z,44.13
2023-04-22T14:35:37.211Z,43.60
2023-04-22T14:40:41.530Z,44.17
2023-04-22T14:45:44.619Z,43.75
2023-04-22T14:50:47.486Z,43.40
2023-04-22T14:55:52.541Z,43.20
2023-04-22T15:00:55.637Z,43.33
2023-04-22T15:05:58.882Z,43.30
2023-04-22T15:11:03.061Z,43.35
2023-04-22T15:16:06.335Z,45.00
2023-04-22T15:21:10.516Z,43.40
2023-04-22T15:26:15.097Z,43.95
2023-04-22T15:31:18.166Z,44.30
2023-04-22T15:36:21.616Z,44.22
2023-04-22T15:41:26.324Z,44.35
2023-04-22T15:46:30.725Z,43.38
2023-04-22T15:51:33.670Z,42.97
2023-04-22T15:56:38.016Z,43.08
2023-04-22T16:01:41.357Z,43.33
2023-04-22T16:06:44.709Z,43.50
2023-04-22T16:11:48.943Z,44.47
2023-04-22T16:16:52.353Z,45.45
2023-04-22T16:21:55.669Z,43.85
2023-04-22T16:26:59.881Z,43.58
2023-04-22T16:32:04.974Z,43.92
2023-04-22T16:37:09.433Z,43.20
2023-04-22T16:42:13.955Z,43.45
2023-04-22T16:47:16.839Z,44.83
2023-04-22T16:52:19.947Z,44.25
2023-04-22T16:57:24.212Z,45.35
2023-04-22T17:02:27.258Z,43.42
2023-04-22T17:07:30.301Z,46.50
2023-04-22T17:12:34.749Z,43.22
2023-04-22T17:17:37.755Z,43.75
2023-04-22T17:22:40.647Z,43.25
2023-04-22T17:27:44.857Z,43.85
2023-04-22T17:32:47.826Z,42.95
2023-04-22T17:37:53.524Z,45.20
2023-04-22T17:42:57.752Z,43.72
2023-04-22T17:48:00.654Z,44.42
2023-04-22T17:53:03.587Z,43.00
2023-04-22T17:58:07.890Z,42.42
2023-04-22T18:03:12.051Z,42.40
2023-04-22T18:08:15.256Z,42.38
2023-04-22T18:13:19.516Z,42.50
2023-04-22T18:18:22.493Z,41.88
2023-04-22T18:23:25.409Z,42.38
2023-04-22T18:28:29.621Z,43.22
2023-04-22T18:33:32.580Z,43.25
2023-04-22T18:38:35.544Z,42.13
2023-04-22T18:43:39.873Z,42.42
2023-04-22T18:48:43.560Z,41.90
2023-04-22T18:53:46.688Z,42.75
2023-04-22T18:58:51.341Z,42.45
2023-04-22T19:03:54.399Z,43.78
2023-04-22T19:08:57.353Z,43.17
2023-04-22T19:14:02.929Z,43.00
2023-04-22T19:19:06.012Z,42.83
2023-04-22T19:24:09.674Z,44.03
2023-04-22T19:29:16.074Z,42.33
2023-04-22T19:34:19.013Z,42.95
2023-04-22T19:39:22.059Z,42.70
2023-04-22T19:44:26.419Z,42.28
2023-04-22T19:49:32.879Z,42.30
2023-04-22T19:54:36.715Z,44.50
2023-04-22T19:59:41.885Z,42.80
2023-04-22T20:04:45.565Z,42.38
2023-04-22T20:09:50.329Z,43.00
2023-04-22T20:14:54.580Z,42.95
2023-04-22T20:20:01.644Z,42.92
2023-04-22T20:25:07.457Z,44.03
2023-04-22T20:30:14.424Z,43.90
2023-04-22T20:35:20.042Z,44.35
2023-04-22T20:40:24.704Z,43.08
2023-04-22T20:45:29.119Z,42.72
2023-04-22T20:50:33.514Z,43.53
2023-04-22T20:55:37.305Z,42.33
2023-04-22T21:00:41.787Z,42.08
2023-04-22T21:05:46.611Z,42.53
2023-04-22T21:10:50.815Z,42.28
2023-04-22T21:15:59.037Z,41.53
2023-04-22T21:21:04.273Z,41.50
2023-04-22T21:26:07.699Z,43.65
2023-04-22T21:31:12.993Z,40.70
2023-04-22T21:36:17.183Z,41.17
2023-04-22T21:41:20.120Z,46.47
2023-04-22T21:46:24.538Z,43.03
2023-04-22T21:51:28.006Z,42.30
2023-04-22T21:56:33.491Z,42.92
2023-04-22T22:01:37.743Z,41.45
2023-04-22T22:06:40.688Z,41.75
2023-04-22T22:11:43.538Z,44.30
2023-04-22T22:16:49.880Z,43.50
2023-04-22T22:21:52.926Z,41.33
2023-04-22T22:26:57.856Z,42.35
2023-04-22T22:32:02.172Z,42.42
2023-04-22T22:37:05.242Z,45.10
2023-04-22T22:42:08.156Z,42.25
2023-04-22T22:47:12.375Z,43.75
2023-04-22T22:52:15.297Z,43.90
2023-04-22T22:57:18.196Z,46.13
2023-04-22T23:02:22.461Z,44.72
2023-04-22T23:07:25.817Z,43.15
2023-04-22T23:12:29.691Z,41.72
2023-04-22T23:17:33.981Z,42.28
2023-04-22T23:22:38.750Z,44.08
2023-04-22T23:27:42.287Z,42.67
2023-04-22T23:32:47.897Z,42.92
2023-04-22T23:37:52.849Z,41.72
2023-04-22T23:42:55.716Z,41.03
2023-04-22T23:48:00.076Z,42.22
2023-04-22T23:53:03.000Z,40.95
2023-04-22T23:58:06.531Z,44.00
